sensor_id;sensor_type;location;lat;lon;timestamp;pressure;altitude;pressure_sealevel;temperature;humidity
4123;BME280;2075;51.062;6.920;2024-03-06T00:00:58;-7126.69;;;-144.48;100.00
4123;BME280;2075;51.062;6.920;2024-03-06T00:03:44;-8640.34;;;-144.48;100.00
4123;BME280;2075;51.062;6.920;2024-03-06T00:06:30;-9901.19;;;-144.48;100.00
4123;BME280;2075;51.062;6.920;2024-03-06T00:09:17;-10909.50;;;-144.48;100.00
4123;BME280;2075;51.062;6.920;2024-03-06T00:12:04;-11413.53;;;-144.48;100.00
4123;BME280;2075;51.062;6.920;2024-03-06T00:14:50;-11665.53;;;-144.48;100.00
4123;BME280;2075;51.062;6.920;2024-03-06T00:17:36;-11667.00;;;-144.48;100.00
4123;BME280;2075;51.062;6.920;2024-03-06T00:20:22;-11667.00;;;-144.48;100.00
4123;BME280;2075;51.062;6.920;2024-03-06T00:23:07;-11667.00;;;-144.48;100.00
4123;BME280;2075;51.062;6.920;2024-03-06T00:25:54;-11667.00;;;-144.48;100.00
4123;BME280;2075;51.062;6.920;2024-03-06T00:28:40;-11667.00;;;-144.48;100.00
4123;BME280;2075;51.062;6.920;2024-03-06T00:31:29;-11667.00;;;-144.48;100.00
4123;BME280;2075;51.062;6.920;2024-03-06T00:34:16;-11667.00;;;-144.48;100.00
4123;BME280;2075;51.062;6.920;2024-03-06T00:37:01;-11667.00;;;-144.48;100.00
4123;BME280;2075;51.062;6.920;2024-03-06T00:39:47;-11667.00;;;-144.48;100.00
4123;BME280;2075;51.062;6.920;2024-03-06T00:42:34;-11667.00;;;-144.48;100.00
4123;BME280;2075;51.062;6.920;2024-03-06T00:45:22;-11667.00;;;-144.48;100.00
4123;BME280;2075;51.062;6.920;2024-03-06T00:48:08;-11667.00;;;-144.48;100.00
4123;BME280;2075;51.062;6.920;2024-03-06T00:50:54;-11667.00;;;-144.48;100.00
4123;BME280;2075;51.062;6.920;2024-03-06T00:53:40;-11667.00;;;-144.48;100.00
4123;BME280;2075;51.062;6.920;2024-03-06T00:56:25;-11667.00;;;-144.48;100.00
4123;BME280;2075;51.062;6.920;2024-03-06T00:59:12;-11667.00;;;-144.48;100.00
4123;BME280;2075;51.062;6.920;2024-03-06T01:01:58;-11667.00;;;-144.48;100.00
4123;BME280;2075;51.062;6.920;2024-03-06T01:04:44;-11667.00;;;-144.48;100.00
4123;BME280;2075;51.062;6.920;2024-03-06T01:07:30;-11667.00;;;-144.48;100.00
4123;BME280;2075;51.062;6.920;2024-03-06T01:10:15;-11667.00;;;-144.48;100.00
4123;BME280;2075;51.062;6.920;2024-03-06T01:13:02;-11667.00;;;-144.48;100.00
4123;BME280;2075;51.062;6.920;2024-03-06T01:15:49;-11667.00;;;-144.48;100.00
4123;BME280;2075;51.062;6.920;2024-03-06T01:18:36;-11667.00;;;-144.48;100.00
4123;BME280;2075;51.062;6.920;2024-03-06T01:21:22;-11667.00;;;-144.48;100.00
4123;BME280;2075;51.062;6.920;2024-03-06T01:24:10;-11667.00;;;-144.48;100.00
4123;BME280;2075;51.062;6.920;2024-03-06T01:26:55;-11667.00;;;-144.48;100.00
4123;BME280;2075;51.062;6.920;2024-03-06T01:29:41;-11667.00;;;-144.48;100.00
4123;BME280;2075;51.062;6.920;2024-03-06T01:32:28;-11667.00;;;-144.48;100.00
4123;BME280;2075;51.062;6.920;2024-03-06T01:35:15;-11667.00;;;-144.48;100.00
4123;BME280;2075;51.062;6.920;2024-03-06T01:38:01;-11667.00;;;-144.48;100.00
4123;BME280;2075;51.062;6.920;2024-03-06T01:40:46;-11667.00;;;-144.48;100.00
4123;BME280;2075;51.062;6.920;2024-03-06T01:43:37;-11667.00;;;-144.48;100.00
4123;BME280;2075;51.062;6.920;2024-03-06T01:46:23;-11667.00;;;-144.48;100.00
4123;BME280;2075;51.062;6.920;2024-03-06T01:49:11;-11667.00;;;-144.48;100.00
4123;BME280;2075;51.062;6.920;2024-03-06T01:51:57;-11667.00;;;-144.48;100.00
4123;BME280;2075;51.062;6.920;2024-03-06T01:54:44;-11667.00;;;-144.48;100.00
4123;BME280;2075;51.062;6.920;2024-03-06T01:57:31;-11667.00;;;-144.48;100.00
4123;BME280;2075;51.062;6.920;2024-03-06T02:00:19;-11667.00;;;-144.48;100.00
4123;BME280;2075;51.062;6.920;2024-03-06T02:03:05;-11667.00;;;-144.48;100.00
4123;BME280;2075;51.062;6.920;2024-03-06T02:05:55;-11667.00;;;-144.48;100.00
4123;BME280;2075;51.062;6.920;2024-03-06T02:08:42;-11667.00;;;-144.48;100.00
4123;BME280;2075;51.062;6.920;2024-03-06T02:11:27;-11667.00;;;-144.48;100.00
4123;BME280;2075;51.062;6.920;2024-03-06T02:14:13;-11667.00;;;-144.48;100.00
4123;BME280;2075;51.062;6.920;2024-03-06T02:17:02;-11667.00;;;-144.48;100.00
4123;BME280;2075;51.062;6.920;2024-03-06T02:19:48;-11667.00;;;-144.48;100.00
4123;BME280;2075;51.062;6.920;2024-03-06T02:22:34;-11667.00;;;-144.48;100.00
4123;BME280;2075;51.062;6.920;2024-03-06T02:25:20;-11667.00;;;-144.48;100.00
4123;BME280;2075;51.062;6.920;2024-03-06T02:28:06;-11667.00;;;-144.48;100.00
4123;BME280;2075;51.062;6.920;2024-03-06T02:30:51;-11667.00;;;-144.48;100.00
4123;BME280;2075;51.062;6.920;2024-03-06T02:33:37;-11667.00;;;-144.48;100.00
4123;BME280;2075;51.062;6.920;2024-03-06T02:36:22;-11667.00;;;-144.48;100.00
4123;BME280;2075;51.062;6.920;2024-03-06T02:39:09;-11667.00;;;-144.48;100.00
4123;BME280;2075;51.062;6.920;2024-03-06T02:41:55;-11667.00;;;-144.48;100.00
4123;BME280;2075;51.062;6.920;2024-03-06T02:44:40;-11667.00;;;-144.48;100.00
4123;BME280;2075;51.062;6.920;2024-03-06T02:47:26;-11667.00;;;-144.48;100.00
4123;BME280;2075;51.062;6.920;2024-03-06T02:50:11;-11667.00;;;-144.48;100.00
4123;BME280;2075;51.062;6.920;2024-03-06T02:52:58;-11667.00;;;-144.48;100.00
4123;BME280;2075;51.062;6.920;2024-03-06T02:55:45;-11667.00;;;-144.48;100.00
4123;BME280;2075;51.062;6.920;2024-03-06T02:58:31;-11667.00;;;-144.48;100.00
4123;BME280;2075;51.062;6.920;2024-03-06T03:01:16;-11667.00;;;-144.48;100.00
4123;BME280;2075;51.062;6.920;2024-03-06T03:04:03;-11667.00;;;-144.48;100.00
4123;BME280;2075;51.062;6.920;2024-03-06T03:06:50;-11667.00;;;-144.48;100.00
4123;BME280;2075;51.062;6.920;2024-03-06T03:09:37;-11667.00;;;-144.48;100.00
4123;BME280;2075;51.062;6.920;2024-03-06T03:12:24;-11667.00;;;-144.48;100.00
4123;BME280;2075;51.062;6.920;2024-03-06T03:15:09;-11667.00;;;-144.48;100.00
4123;BME280;2075;51.062;6.920;2024-03-06T03:17:56;-11667.00;;;-144.48;100.00
4123;BME280;2075;51.062;6.920;2024-03-06T03:20:42;-11667.00;;;-144.48;100.00
4123;BME280;2075;51.062;6.920;2024-03-06T03:23:36;-11667.00;;;-144.48;100.00
4123;BME280;2075;51.062;6.920;2024-03-06T03:26:21;-11667.00;;;-144.48;100.00
4123;BME280;2075;51.062;6.920;2024-03-06T03:29:08;-11667.00;;;-144.48;100.00
4123;BME280;2075;51.062;6.920;2024-03-06T03:31:54;-11667.00;;;-144.48;100.00
4123;BME280;2075;51.062;6.920;2024-03-06T03:34:39;-11667.00;;;-144.48;100.00
4123;BME280;2075;51.062;6.920;2024-03-06T03:37:25;-11667.00;;;-144.48;100.00
4123;BME280;2075;51.062;6.920;2024-03-06T03:40:10;-11667.00;;;-144.48;100.00
4123;BME280;2075;51.062;6.920;2024-03-06T03:42:56;-11667.00;;;-144.48;100.00
4123;BME280;2075;51.062;6.920;2024-03-06T03:45:43;-11667.00;;;-144.48;100.00
4123;BME280;2075;51.062;6.920;2024-03-06T03:48:28;-11667.00;;;-144.48;100.00
4123;BME280;2075;51.062;6.920;2024-03-06T03:51:14;-11667.00;;;-144.48;100.00
4123;BME280;2075;51.062;6.920;2024-03-06T03:53:59;-11667.00;;;-144.48;100.00
4123;BME280;2075;51.062;6.920;2024-03-06T03:56:46;-11667.00;;;-144.48;100.00
4123;BME280;2075;51.062;6.920;2024-03-06T03:59:32;-11667.00;;;-144.48;100.00
4123;BME280;2075;51.062;6.920;2024-03-06T04:02:19;-11667.00;;;-144.48;100.00
4123;BME280;2075;51.062;6.920;2024-03-06T04:05:05;-11667.00;;;-144.48;100.00
4123;BME280;2075;51.062;6.920;2024-03-06T04:07:51;-11667.00;;;-144.48;100.00
4123;BME280;2075;51.062;6.920;2024-03-06T04:10:38;-11667.00;;;-144.48;100.00
4123;BME280;2075;51.062;6.920;2024-03-06T04:13:24;-11667.00;;;-144.48;100.00
4123;BME280;2075;51.062;6.920;2024-03-06T04:16:10;-11667.00;;;-144.48;100.00
4123;BME280;2075;51.062;6.920;2024-03-06T04:18:58;-11667.00;;;-144.48;100.00
4123;BME280;2075;51.062;6.920;2024-03-06T04:21:44;-11667.00;;;-144.48;100.00
4123;BME280;2075;51.062;6.920;2024-03-06T04:24:29;-11667.00;;;-144.48;100.00
4123;BME280;2075;51.062;6.920;2024-03-06T04:27:14;-11667.00;;;-144.48;100.00
4123;BME280;2075;51.062;6.920;2024-03-06T04:30:02;-11667.00;;;-144.48;100.00
4123;BME280;2075;51.062;6.920;2024-03-06T04:32:48;-11667.00;;;-144.48;100.00
4123;BME280;2075;51.062;6.920;2024-03-06T04:46:15;-11667.00;;;-144.48;100.00
4123;BME280;2075;51.062;6.920;2024-03-06T04:49:00;-11667.00;;;-144.48;100.00
4123;BME280;2075;51.062;6.920;2024-03-06T04:51:46;-11667.00;;;-144.48;100.00
4123;BME280;2075;51.062;6.920;2024-03-06T04:54:33;-11667.00;;;-144.48;100.00
4123;BME280;2075;51.062;6.920;2024-03-06T04:57:18;-11667.00;;;-144.48;100.00
4123;BME280;2075;51.062;6.920;2024-03-06T05:00:05;-11667.00;;;-144.48;100.00
4123;BME280;2075;51.062;6.920;2024-03-06T05:02:55;-11667.00;;;-144.48;100.00
4123;BME280;2075;51.062;6.920;2024-03-06T05:05:41;-11667.00;;;-144.48;100.00
4123;BME280;2075;51.062;6.920;2024-03-06T05:08:26;-11667.00;;;-144.48;100.00
4123;BME280;2075;51.062;6.920;2024-03-06T05:11:13;-11667.00;;;-144.48;100.00
4123;BME280;2075;51.062;6.920;2024-03-06T05:13:59;-11667.00;;;-144.48;100.00
4123;BME280;2075;51.062;6.920;2024-03-06T05:16:45;-11667.00;;;-144.48;100.00
4123;BME280;2075;51.062;6.920;2024-03-06T05:19:32;-11667.00;;;-144.48;100.00
4123;BME280;2075;51.062;6.920;2024-03-06T05:22:17;-11667.00;;;-144.48;100.00
4123;BME280;2075;51.062;6.920;2024-03-06T05:25:03;-11667.00;;;-144.48;100.00
4123;BME280;2075;51.062;6.920;2024-03-06T05:27:49;-11667.00;;;-144.48;100.00
4123;BME280;2075;51.062;6.920;2024-03-06T05:30:34;-11667.00;;;-144.48;100.00
4123;BME280;2075;51.062;6.920;2024-03-06T05:33:21;-11667.00;;;-144.48;100.00
4123;BME280;2075;51.062;6.920;2024-03-06T05:36:09;-11667.00;;;-144.48;100.00
4123;BME280;2075;51.062;6.920;2024-03-06T05:38:54;-11667.00;;;-144.48;100.00
4123;BME280;2075;51.062;6.920;2024-03-06T05:41:41;-11667.00;;;-144.48;100.00
4123;BME280;2075;51.062;6.920;2024-03-06T05:44:27;-11667.00;;;-144.48;100.00
4123;BME280;2075;51.062;6.920;2024-03-06T05:47:12;-11667.00;;;-144.48;100.00
4123;BME280;2075;51.062;6.920;2024-03-06T05:49:59;-11667.00;;;-144.48;100.00
4123;BME280;2075;51.062;6.920;2024-03-06T05:52:49;-11667.00;;;-144.48;100.00
4123;BME280;2075;51.062;6.920;2024-03-06T05:55:34;-11667.00;;;-144.48;100.00
4123;BME280;2075;51.062;6.920;2024-03-06T05:58:20;-11667.00;;;-144.48;100.00
4123;BME280;2075;51.062;6.920;2024-03-06T06:01:06;-11667.00;;;-144.48;100.00
4123;BME280;2075;51.062;6.920;2024-03-06T06:03:52;-11667.00;;;-144.48;100.00
4123;BME280;2075;51.062;6.920;2024-03-06T06:06:37;-11667.00;;;-144.48;100.00
4123;BME280;2075;51.062;6.920;2024-03-06T06:09:25;-11667.00;;;-144.48;100.00
4123;BME280;2075;51.062;6.920;2024-03-06T06:12:11;-11667.00;;;-144.48;100.00
4123;BME280;2075;51.062;6.920;2024-03-06T06:14:57;-11667.00;;;-144.48;100.00
4123;BME280;2075;51.062;6.920;2024-03-06T06:17:46;-11667.00;;;-144.48;100.00
4123;BME280;2075;51.062;6.920;2024-03-06T06:20:31;-11667.00;;;-144.48;100.00
4123;BME280;2075;51.062;6.920;2024-03-06T06:23:18;-11667.00;;;-144.48;100.00
4123;BME280;2075;51.062;6.920;2024-03-06T06:26:05;-11667.00;;;-144.48;100.00
4123;BME280;2075;51.062;6.920;2024-03-06T06:28:50;-11667.00;;;-144.48;100.00
4123;BME280;2075;51.062;6.920;2024-03-06T06:31:36;-11667.00;;;-144.48;100.00
4123;BME280;2075;51.062;6.920;2024-03-06T06:34:22;-11667.00;;;-144.48;100.00
4123;BME280;2075;51.062;6.920;2024-03-06T06:37:09;-11667.00;;;-144.48;100.00
4123;BME280;2075;51.062;6.920;2024-03-06T06:39:54;-11667.00;;;-144.48;100.00
4123;BME280;2075;51.062;6.920;2024-03-06T06:42:45;-11667.00;;;-144.48;100.00
4123;BME280;2075;51.062;6.920;2024-03-06T06:45:33;-11667.00;;;-144.48;100.00
4123;BME280;2075;51.062;6.920;2024-03-06T06:48:19;-11667.00;;;-144.48;100.00
4123;BME280;2075;51.062;6.920;2024-03-06T06:51:05;-11667.00;;;-144.48;100.00
4123;BME280;2075;51.062;6.920;2024-03-06T06:53:51;-10405.38;;;-144.48;100.00
4123;BME280;2075;51.062;6.920;2024-03-06T06:56:39;-6369.59;;;-144.48;100.00
4123;BME280;2075;51.062;6.920;2024-03-06T06:59:27;-1065.06;;;-144.48;100.00
4123;BME280;2075;51.062;6.920;2024-03-06T07:02:12;3235.38;;;-144.48;100.00
4123;BME280;2075;51.062;6.920;2024-03-06T07:04:59;9823.44;;;-144.48;100.00
4123;BME280;2075;51.062;6.920;2024-03-06T07:07:45;18712.78;;;-144.48;100.00
4123;BME280;2075;51.062;6.920;2024-03-06T07:10:31;35284.97;;;-144.48;100.00
4123;BME280;2075;51.062;6.920;2024-03-06T07:13:17;42193.03;;;-144.48;100.00
4123;BME280;2075;51.062;6.920;2024-03-06T07:16:05;41680.84;;;-144.48;100.00
4123;BME280;2075;51.062;6.920;2024-03-06T07:18:50;46036.97;;;-144.48;100.00
4123;BME280;2075;51.062;6.920;2024-03-06T07:21:36;51169.06;;;-144.48;100.00
4123;BME280;2075;51.062;6.920;2024-03-06T07:24:23;52710.22;;;-144.48;100.00
4123;BME280;2075;51.062;6.920;2024-03-06T07:27:10;71264.84;;;-144.48;100.00
4123;BME280;2075;51.062;6.920;2024-03-06T07:29:57;91489.47;;;-144.48;100.00
4123;BME280;2075;51.062;6.920;2024-03-06T07:32:48;93897.94;;;-144.48;100.00
4123;BME280;2075;51.062;6.920;2024-03-06T07:35:35;94485.06;;;-144.48;100.00
4123;BME280;2075;51.062;6.920;2024-03-06T07:38:22;94334.72;;;-144.48;100.00
4123;BME280;2075;51.062;6.920;2024-03-06T07:41:08;94493.19;;;-144.48;100.00
4123;BME280;2075;51.062;6.920;2024-03-06T07:44:01;94586.66;;;-144.48;100.00
4123;BME280;2075;51.062;6.920;2024-03-06T07:47:01;94578.53;;;-144.48;100.00
4123;BME280;2075;51.062;6.920;2024-03-06T07:50:11;94546.03;;;-144.48;100.00
4123;BME280;2075;51.062;6.920;2024-03-06T07:53:06;94582.59;;;-144.48;100.00
4123;BME280;2075;51.062;6.920;2024-03-06T07:55:54;94627.28;;;-144.48;100.00
4123;BME280;2075;51.062;6.920;2024-03-06T07:58:43;94572.44;;;-144.48;100.00
4123;BME280;2075;51.062;6.920;2024-03-06T08:01:31;94600.88;;;-144.48;100.00
4123;BME280;2075;51.062;6.920;2024-03-06T08:04:31;94592.75;;;-144.48;100.00
4123;BME280;2075;51.062;6.920;2024-03-06T08:07:21;94590.72;;;-144.48;100.00
4123;BME280;2075;51.062;6.920;2024-03-06T08:10:09;94570.41;;;-144.48;100.00
4123;BME280;2075;51.062;6.920;2024-03-06T08:13:06;94615.09;;;-144.48;100.00
4123;BME280;2075;51.062;6.920;2024-03-06T08:16:07;94619.16;;;-144.48;100.00
4123;BME280;2075;51.062;6.920;2024-03-06T08:18:55;94627.28;;;-144.48;100.00
4123;BME280;2075;51.062;6.920;2024-03-06T08:21:46;94560.25;;;-144.48;100.00
4123;BME280;2075;51.062;6.920;2024-03-06T08:24:59;94570.41;;;-144.48;100.00
4123;BME280;2075;51.062;6.920;2024-03-06T08:28:08;94822.34;;;-144.48;100.00
4123;BME280;2075;51.062;6.920;2024-03-06T08:31:01;94637.44;;;-144.48;100.00
4123;BME280;2075;51.062;6.920;2024-03-06T08:33:49;94576.50;;;-144.48;100.00
4123;BME280;2075;51.062;6.920;2024-03-06T08:36:35;94570.41;;;-144.48;100.00
4123;BME280;2075;51.062;6.920;2024-03-06T08:39:46;94588.69;;;-144.48;100.00
4123;BME280;2075;51.062;6.920;2024-03-06T08:42:42;94576.50;;;-144.48;100.00
4123;BME280;2075;51.062;6.920;2024-03-06T08:45:31;94558.22;;;-144.48;100.00
4123;BME280;2075;51.062;6.920;2024-03-06T08:48:57;94170.16;;;-144.48;100.00
4123;BME280;2075;51.062;6.920;2024-03-06T08:52:02;94517.56;;;-144.48;100.00
4123;BME280;2075;51.062;6.920;2024-03-06T08:55:10;94456.63;;;-144.48;100.00
4123;BME280;2075;51.062;6.920;2024-03-06T08:58:37;94531.78;;;-144.48;100.00
4123;BME280;2075;51.062;6.920;2024-03-06T09:01:43;94554.16;;;-144.48;100.00
4123;BME280;2075;51.062;6.920;2024-03-06T09:04:46;94554.16;;;-144.48;100.00
4123;BME280;2075;51.062;6.920;2024-03-06T09:07:37;94550.09;;;-144.48;100.00
4123;BME280;2075;51.062;6.920;2024-03-06T09:10:31;94444.44;;;-144.48;100.00
4123;BME280;2075;51.062;6.920;2024-03-06T09:13:18;94493.19;;;-144.48;100.00
4123;BME280;2075;51.062;6.920;2024-03-06T09:16:22;94277.81;;;-144.48;100.00
4123;BME280;2075;51.062;6.920;2024-03-06T09:19:21;94454.59;;;-144.48;100.00
4123;BME280;2075;51.062;6.920;2024-03-06T09:22:12;94483.03;;;-144.48;100.00
4123;BME280;2075;51.062;6.920;2024-03-06T09:24:58;94478.97;;;-144.48;100.00
4123;BME280;2075;51.062;6.920;2024-03-06T09:27:49;94434.28;;;-144.48;100.00
4123;BME280;2075;51.062;6.920;2024-03-06T09:30:35;94485.06;;;-144.48;100.00
4123;BME280;2075;51.062;6.920;2024-03-06T09:33:23;94350.97;;;-144.48;98.94
4123;BME280;2075;51.062;6.920;2024-03-06T09:36:11;94304.25;;;-144.48;94.97
4123;BME280;2075;51.062;6.920;2024-03-06T09:39:06;94143.75;;;-144.48;94.23
4123;BME280;2075;51.062;6.920;2024-03-06T09:42:10;94413.94;;;-144.48;97.05
4123;BME280;2075;51.062;6.920;2024-03-06T09:45:00;94448.50;;;-144.48;98.97
4123;BME280;2075;51.062;6.920;2024-03-06T09:47:49;94411.91;;;-144.48;100.00
4123;BME280;2075;51.062;6.920;2024-03-06T09:50:38;94428.16;;;-144.48;100.00
4123;BME280;2075;51.062;6.920;2024-03-06T09:53:29;94336.75;;;-144.48;93.52
4123;BME280;2075;51.062;6.920;2024-03-06T09:56:23;94342.84;;;-144.48;92.10
4123;BME280;2075;51.062;6.920;2024-03-06T09:59:16;94478.97;;;-144.48;97.42
4123;BME280;2075;51.062;6.920;2024-03-06T10:02:05;94481.00;;;-144.48;100.00
4123;BME280;2075;51.062;6.920;2024-03-06T10:04:59;94483.03;;;-144.48;100.00
4123;BME280;2075;51.062;6.920;2024-03-06T10:07:47;94594.78;;;-144.48;100.00
4123;BME280;2075;51.062;6.920;2024-03-06T10:10:33;94578.53;;;-144.48;100.00
4123;BME280;2075;51.062;6.920;2024-03-06T10:13:25;94594.78;;;-144.48;100.00
4123;BME280;2075;51.062;6.920;2024-03-06T10:16:19;94481.00;;;-144.48;100.00
4123;BME280;2075;51.062;6.920;2024-03-06T10:19:15;94572.44;;;-144.48;100.00
4123;BME280;2075;51.062;6.920;2024-03-06T10:22:07;94564.31;;;-144.48;100.00
4123;BME280;2075;51.062;6.920;2024-03-06T10:25:00;94600.88;;;-144.48;100.00
4123;BME280;2075;51.062;6.920;2024-03-06T10:27:46;94800.00;;;-144.48;100.00
4123;BME280;2075;51.062;6.920;2024-03-06T10:30:35;94466.78;;;-144.48;100.00
4123;BME280;2075;51.062;6.920;2024-03-06T10:33:21;94485.06;;;-144.48;100.00
4123;BME280;2075;51.062;6.920;2024-03-06T10:36:13;94489.13;;;-144.48;100.00
4123;BME280;2075;51.062;6.920;2024-03-06T10:39:02;94509.44;;;-144.48;100.00
4123;BME280;2075;51.062;6.920;2024-03-06T10:42:06;94513.50;;;-144.48;100.00
4123;BME280;2075;51.062;6.920;2024-03-06T10:44:52;94527.72;;;-144.48;100.00
4123;BME280;2075;51.062;6.920;2024-03-06T10:47:41;94501.31;;;-144.48;100.00
4123;BME280;2075;51.062;6.920;2024-03-06T10:50:35;94464.75;;;-144.48;100.00
4123;BME280;2075;51.062;6.920;2024-03-06T10:53:22;94456.63;;;-144.48;99.92
4123;BME280;2075;51.062;6.920;2024-03-06T10:56:10;94464.75;;;-144.48;100.00
4123;BME280;2075;51.062;6.920;2024-03-06T10:58:59;94485.06;;;-144.48;100.00
4123;BME280;2075;51.062;6.920;2024-03-06T11:01:51;94533.81;;;-144.48;100.00
4123;BME280;2075;51.062;6.920;2024-03-06T11:04:41;94554.16;;;-144.48;100.00
4123;BME280;2075;51.062;6.920;2024-03-06T11:07:27;94960.53;;;-144.48;100.00
4123;BME280;2075;51.062;6.920;2024-03-06T11:10:31;94556.19;;;-144.48;100.00
4123;BME280;2075;51.062;6.920;2024-03-06T11:13:21;94570.41;;;-144.48;100.00
4123;BME280;2075;51.062;6.920;2024-03-06T11:16:11;94564.31;;;-144.48;100.00
4123;BME280;2075;51.062;6.920;2024-03-06T11:19:06;94627.28;;;-144.48;100.00
4123;BME280;2075;51.062;6.920;2024-03-06T11:21:56;94647.59;;;-144.48;100.00
4123;BME280;2075;51.062;6.920;2024-03-06T11:24:55;94594.78;;;-144.48;100.00
4123;BME280;2075;51.062;6.920;2024-03-06T11:28:03;94665.91;;;-144.48;100.00
4123;BME280;2075;51.062;6.920;2024-03-06T11:31:05;94826.41;;;-144.48;100.00
4123;BME280;2075;51.062;6.920;2024-03-06T11:34:11;94623.22;;;-144.48;100.00
4123;BME280;2075;51.062;6.920;2024-03-06T11:37:03;94928.03;;;-144.48;100.00
4123;BME280;2075;51.062;6.920;2024-03-06T11:39:59;94578.53;;;-144.48;100.00
4123;BME280;2075;51.062;6.920;2024-03-06T11:42:46;94598.84;;;-144.48;100.00
4123;BME280;2075;51.062;6.920;2024-03-06T11:45:43;94554.16;;;-144.48;100.00
4123;BME280;2075;51.062;6.920;2024-03-06T11:48:31;94586.66;;;-144.48;100.00
4123;BME280;2075;51.062;6.920;2024-03-06T11:51:21;94541.94;;;-144.48;100.00
4123;BME280;2075;51.062;6.920;2024-03-06T11:54:08;94544.00;;;-144.48;100.00
4123;BME280;2075;51.062;6.920;2024-03-06T11:56:56;94521.63;;;-144.48;100.00
4123;BME280;2075;51.062;6.920;2024-03-06T11:59:43;94509.44;;;-144.48;100.00
4123;BME280;2075;51.062;6.920;2024-03-06T12:02:32;94537.88;;;-144.48;100.00
4123;BME280;2075;51.062;6.920;2024-03-06T12:05:24;94523.66;;;-144.48;100.00
4123;BME280;2075;51.062;6.920;2024-03-06T12:08:14;94572.44;;;-144.48;100.00
4123;BME280;2075;51.062;6.920;2024-03-06T12:11:01;94519.59;;;-144.48;99.66
4123;BME280;2075;51.062;6.920;2024-03-06T12:13:53;94511.47;;;-144.48;96.18
4123;BME280;2075;51.062;6.920;2024-03-06T12:16:55;94481.00;;;-144.48;95.64
4123;BME280;2075;51.062;6.920;2024-03-06T12:20:23;94460.69;;;-144.48;95.09
4123;BME280;2075;51.062;6.920;2024-03-06T12:23:29;94440.38;;;-144.48;94.66
4123;BME280;2075;51.062;6.920;2024-03-06T12:26:16;94483.03;;;-144.48;94.52
4123;BME280;2075;51.062;6.920;2024-03-06T12:29:06;94476.94;;;-144.48;96.89
4123;BME280;2075;51.062;6.920;2024-03-06T12:35:24;94438.34;;;-144.48;94.47
4123;BME280;2075;51.062;6.920;2024-03-06T12:38:33;94424.09;;;-144.48;91.43
4123;BME280;2075;51.062;6.920;2024-03-06T12:41:24;94399.72;;;-144.48;90.14
4123;BME280;2075;51.062;6.920;2024-03-06T12:44:14;94604.94;;;-144.48;90.92
4123;BME280;2075;51.062;6.920;2024-03-06T12:47:04;94359.09;;;-144.48;91.31
4123;BME280;2075;51.062;6.920;2024-03-06T12:49:55;94387.53;;;-144.48;90.48
4123;BME280;2075;51.062;6.920;2024-03-06T12:52:57;94318.47;;;-144.48;90.91
4123;BME280;2075;51.062;6.920;2024-03-06T12:55:47;94336.75;;;-144.48;89.45
4123;BME280;2075;51.062;6.920;2024-03-06T12:58:41;94277.81;;;-144.48;85.89
4123;BME280;2075;51.062;6.920;2024-03-06T13:01:46;94285.94;;;-144.48;81.83
4123;BME280;2075;51.062;6.920;2024-03-06T13:04:32;94255.47;;;-144.48;78.12
4123;BME280;2075;51.062;6.920;2024-03-06T13:07:21;94271.72;;;-144.48;75.91
4123;BME280;2075;51.062;6.920;2024-03-06T13:10:22;94149.84;;;-144.48;72.15
4123;BME280;2075;51.062;6.920;2024-03-06T13:35:35;93857.28;;;-144.48;54.10
4123;BME280;2075;51.062;6.920;2024-03-06T13:38:31;94415.97;;;-144.48;53.34
4123;BME280;2075;51.062;6.920;2024-03-06T13:41:37;94306.28;;;-144.48;53.27
4123;BME280;2075;51.062;6.920;2024-03-06T13:45:23;94127.50;;;-144.48;55.86
4123;BME280;2075;51.062;6.920;2024-03-06T13:48:37;94227.03;;;-144.48;56.98
4123;BME280;2075;51.062;6.920;2024-03-06T13:52:04;94350.97;;;-144.48;56.30
4123;BME280;2075;51.062;6.920;2024-03-06T13:55:00;94283.91;;;-144.48;55.64
4123;BME280;2075;51.062;6.920;2024-03-06T13:57:55;94206.72;;;-144.48;53.03
4123;BME280;2075;51.062;6.920;2024-03-06T14:00:51;94218.91;;;-144.48;52.22
4123;BME280;2075;51.062;6.920;2024-03-06T14:03:44;94178.28;;;-144.48;53.46
4123;BME280;2075;51.062;6.920;2024-03-06T14:06:47;94261.56;;;-144.48;53.10
4123;BME280;2075;51.062;6.920;2024-03-06T14:09:41;94338.78;;;-144.48;53.02
4123;BME280;2075;51.062;6.920;2024-03-06T14:12:33;94237.19;;;-144.48;54.19
4123;BME280;2075;51.062;6.920;2024-03-06T14:15:20;94233.13;;;-144.48;51.73
4123;BME280;2075;51.062;6.920;2024-03-06T14:18:13;94206.72;;;-144.48;51.67
4123;BME280;2075;51.062;6.920;2024-03-06T14:21:05;94204.69;;;-144.48;51.40
4123;BME280;2075;51.062;6.920;2024-03-06T14:23:54;94149.84;;;-144.48;50.63
4123;BME280;2075;51.062;6.920;2024-03-06T14:26:47;94178.28;;;-144.48;50.42
4123;BME280;2075;51.062;6.920;2024-03-06T14:29:52;94186.41;;;-144.48;49.40
4123;BME280;2075;51.062;6.920;2024-03-06T14:32:52;94180.31;;;-144.48;49.70
4123;BME280;2075;51.062;6.920;2024-03-06T14:35:58;94107.16;;;-144.48;48.89
4123;BME280;2075;51.062;6.920;2024-03-06T14:39:20;94105.13;;;-144.48;48.91
4123;BME280;2075;51.062;6.920;2024-03-06T14:42:14;94074.66;;;-144.48;46.50
4123;BME280;2075;51.062;6.920;2024-03-06T14:45:02;94036.06;;;-144.48;46.24
4123;BME280;2075;51.062;6.920;2024-03-06T14:47:54;94025.91;;;-144.48;45.03
4123;BME280;2075;51.062;6.920;2024-03-06T14:50:53;93960.91;;;-144.48;43.88
4123;BME280;2075;51.062;6.920;2024-03-06T14:53:56;93981.22;;;-144.48;43.27
4123;BME280;2075;51.062;6.920;2024-03-06T14:56:59;93944.66;;;-144.48;42.83
4123;BME280;2075;51.062;6.920;2024-03-06T15:00:00;93906.06;;;-144.48;41.79
4123;BME280;2075;51.062;6.920;2024-03-06T15:03:03;93912.16;;;-144.48;40.93
4123;BME280;2075;51.062;6.920;2024-03-06T15:06:20;93798.38;;;-144.48;40.53
4123;BME280;2075;51.062;6.920;2024-03-06T15:09:09;93983.25;;;-144.48;41.21
4123;BME280;2075;51.062;6.920;2024-03-06T15:12:37;93944.66;;;-144.48;41.61
4123;BME280;2075;51.062;6.920;2024-03-06T15:15:47;94021.84;;;-144.48;41.24
4123;BME280;2075;51.062;6.920;2024-03-06T15:18:50;94084.81;;;-144.48;41.84
4123;BME280;2075;51.062;6.920;2024-03-06T15:21:56;94064.50;;;-144.48;42.82
4123;BME280;2075;51.062;6.920;2024-03-06T15:25:05;93936.53;;;-144.48;43.89
4123;BME280;2075;51.062;6.920;2024-03-06T15:28:07;94052.31;;;-144.48;44.23